Terminal Aerodrome Forecast
Issued by NWS

Home | Current Version | Previous Version | Graphics & Text | Print | Product List | Glossary On
Versions: 1 2 3 4 5 6 7 8 9 10 11 12 13
085
FTUS43 KLSX 042338
TAFSUS
TAF
KSUS 042338Z 0500/0524 33012G20KT P6SM SCT070
     FM050200 33006KT P6SM SKC
     FM051500 34012KT P6SM SCT050=

USA.gov is the U.S. government's official web portal to all federal, state and local government web resources and services.